createdAt,value
2023-04-26T00:01:08.390Z,31.10
2023-04-26T00:06:14.171Z,28.10
2023-04-26T00:11:16.975Z,22.80
2023-04-26T00:16:20.291Z,27.10
2023-04-26T00:21:23.173Z,21.30
2023-04-26T00:26:26.010Z,23.70
2023-04-26T00:31:28.951Z,27.80
2023-04-26T00:36:32.707Z,29.60
2023-04-26T00:41:35.602Z,27.40
2023-04-26T00:46:38.465Z,23.80
2023-04-26T00:51:41.299Z,17.00
2023-04-26T00:56:44.318Z,34.60
2023-04-26T01:01:49.069Z,29.20
2023-04-26T01:06:52.137Z,28.70
2023-04-26T01:11:58.131Z,28.90
2023-04-26T01:17:02.821Z,25.00
2023-04-26T01:22:05.782Z,36.00
2023-04-26T01:27:09.012Z,30.90
2023-04-26T01:32:12.067Z,33.00
2023-04-26T01:37:14.954Z,30.90
2023-04-26T01:42:17.794Z,25.80
2023-04-26T01:47:20.837Z,36.20
2023-04-26T01:52:23.630Z,31.20
2023-04-26T01:57:26.423Z,32.90
2023-04-26T02:02:29.478Z,36.80
2023-04-26T02:07:32.293Z,37.00
2023-04-26T02:12:35.085Z,38.60
2023-04-26T02:17:38.797Z,43.50
2023-04-26T02:22:41.601Z,40.60
2023-04-26T02:27:44.418Z,34.10
2023-04-26T02:32:47.401Z,47.50
2023-04-26T02:37:52.437Z,31.00
2023-04-26T02:42:55.213Z,33.70
2023-04-26T02:47:58.047Z,30.20
2023-04-26T02:53:00.874Z,32.10
2023-04-26T02:58:03.634Z,27.40
2023-04-26T03:03:06.897Z,29.10
2023-04-26T03:08:09.927Z,31.80
2023-04-26T03:13:13.051Z,44.80
2023-04-26T03:18:15.861Z,41.60
2023-04-26T03:23:18.680Z,46.50
2023-04-26T03:28:21.554Z,47.60
2023-04-26T03:33:24.441Z,40.40
2023-04-26T03:38:27.289Z,43.30
2023-04-26T03:43:30.216Z,45.60
2023-04-26T03:48:33.010Z,31.20
2023-04-26T03:53:36.107Z,27.70
2023-04-26T03:58:38.889Z,41.80
2023-04-26T04:03:41.907Z,44.50
2023-04-26T04:08:44.833Z,33.30
2023-04-26T04:13:47.622Z,39.20
2023-04-26T04:18:50.925Z,36.10
2023-04-26T04:23:53.989Z,24.70
2023-04-26T04:28:57.562Z,27.30
2023-04-26T04:34:00.811Z,28.20
2023-04-26T04:39:04.224Z,14.70
2023-04-26T04:44:07.132Z,20.90
2023-04-26T04:49:15.465Z,24.00
2023-04-26T04:54:19.354Z,26.10
2023-04-26T04:59:22.151Z,16.30
2023-04-26T05:04:25.141Z,18.00
2023-04-26T05:09:39.191Z,26.70
2023-04-26T05:14:44.400Z,19.20
2023-04-26T05:19:47.315Z,15.50
2023-04-26T05:24:50.281Z,16.00
2023-04-26T05:29:53.163Z,10.30
2023-04-26T05:34:57.114Z,10.70
2023-04-26T05:40:00.691Z,15.20
2023-04-26T05:45:04.741Z,11.50
2023-04-26T05:50:08.630Z,13.60
2023-04-26T05:55:13.361Z,7.60
2023-04-26T06:00:17.024Z,9.20
2023-04-26T06:05:20.492Z,6.60
2023-04-26T06:10:23.495Z,9.40
2023-04-26T06:15:27.777Z,6.90
2023-04-26T06:20:30.725Z,6.90
2023-04-26T06:25:34.191Z,7.30
2023-04-26T06:30:37.147Z,7.50
2023-04-26T06:35:43.385Z,11.30
2023-04-26T06:40:46.667Z,7.80
2023-04-26T06:45:49.729Z,8.20
2023-04-26T06:50:52.582Z,10.40
2023-04-26T06:55:57.538Z,6.90
2023-04-26T07:01:01.295Z,8.40
2023-04-26T07:06:05.086Z,13.70
2023-04-26T07:11:13.278Z,7.20
2023-04-26T07:16:17.010Z,5.60
2023-04-26T07:21:19.888Z,9.40
2023-04-26T07:26:24.358Z,8.30
2023-04-26T07:31:27.251Z,13.70
2023-04-26T07:36:30.043Z,6.40
2023-04-26T07:41:35.240Z,9.40
2023-04-26T07:46:40.554Z,6.00
2023-04-26T07:51:45.809Z,8.10
2023-04-26T07:56:48.734Z,10.90
2023-04-26T08:01:53.284Z,7.90
2023-04-26T08:06:58.605Z,10.80
2023-04-26T08:12:01.481Z,5.80
2023-04-26T08:17:05.373Z,9.00
2023-04-26T08:22:08.920Z,8.20
2023-04-26T08:27:11.924Z,9.30
2023-04-26T08:32:14.818Z,7.10
2023-04-26T08:37:17.836Z,6.00
2023-04-26T08:42:24.880Z,16.90
2023-04-26T08:47:53.704Z,24.00
2023-04-26T08:52:56.668Z,8.50
2023-04-26T08:58:01.362Z,6.70
2023-04-26T09:03:04.666Z,14.20
2023-04-26T09:08:09.539Z,6.10
2023-04-26T09:13:13.001Z,10.90
2023-04-26T09:18:19.818Z,7.50
2023-04-26T09:23:22.650Z,6.00
2023-04-26T09:28:26.280Z,5.80
2023-04-26T09:33:29.498Z,7.00
2023-04-26T09:39:21.501Z,4.40
2023-04-26T09:44:32.109Z,11.30
2023-04-26T09:49:56.221Z,9.20
2023-04-26T09:54:59.084Z,5.40
2023-04-26T10:00:10.409Z,5.90
2023-04-26T10:05:14.057Z,10.70
2023-04-26T10:10:18.728Z,9.50
2023-04-26T10:15:21.913Z,8.30
2023-04-26T10:20:29.173Z,7.00
2023-04-26T10:25:40.516Z,7.90
2023-04-26T10:31:01.205Z,6.20
2023-04-26T10:36:10.334Z,12.60
2023-04-26T10:41:36.079Z,11.60
2023-04-26T10:46:41.108Z,6.00
2023-04-26T10:52:15.096Z,10.50
2023-04-26T10:57:19.043Z,10.70
2023-04-26T11:03:14.832Z,4.70
2023-04-26T11:08:32.998Z,5.30
2023-04-26T11:13:42.868Z,6.30
2023-04-26T11:18:47.871Z,8.60
2023-04-26T11:23:55.327Z,6.10
2023-04-26T11:28:58.230Z,4.70
2023-04-26T11:34:05.434Z,6.90
2023-04-26T11:39:08.435Z,6.60
2023-04-26T11:44:26.009Z,5.50
2023-04-26T11:49:30.947Z,5.90
2023-04-26T11:54:37.932Z,5.00
2023-04-26T11:59:41.913Z,6.20
2023-04-26T12:04:45.213Z,8.00
2023-04-26T12:09:48.324Z,4.90
2023-04-26T12:14:51.297Z,7.00
2023-04-26T12:19:54.195Z,5.40
2023-04-26T12:25:10.563Z,4.90
2023-04-26T12:30:35.877Z,7.20
2023-04-26T12:37:18.670Z,5.70
2023-04-26T12:42:22.159Z,5.40
2023-04-26T12:47:25.329Z,8.00
2023-04-26T12:52:28.507Z,7.40
2023-04-26T12:57:31.462Z,7.30
2023-04-26T13:02:34.585Z,7.90
2023-04-26T13:07:42.466Z,13.40
2023-04-26T13:12:45.735Z,6.80
2023-04-26T13:17:49.213Z,5.60
2023-04-26T13:22:52.335Z,11.00
2023-04-26T13:27:55.549Z,7.90
2023-04-26T13:33:00.104Z,6.50
2023-04-26T13:38:04.144Z,10.60
2023-04-26T13:43:07.259Z,7.40
2023-04-26T13:48:10.226Z,4.20
2023-04-26T13:53:13.286Z,8.30
2023-04-26T13:58:16.582Z,8.20
2023-04-26T14:03:20.083Z,8.20
2023-04-26T14:08:23.192Z,5.00
2023-04-26T14:13:26.313Z,5.10
2023-04-26T14:18:29.222Z,4.20
2023-04-26T14:23:32.619Z,6.20
2023-04-26T14:28:36.549Z,5.90
2023-04-26T14:33:39.745Z,6.20
2023-04-26T14:38:43.879Z,6.90
2023-04-26T14:43:47.408Z,6.20
2023-04-26T14:48:51.215Z,8.10
2023-04-26T14:53:54.473Z,6.60
2023-04-26T14:58:57.565Z,5.60
2023-04-26T15:04:01.560Z,6.10
2023-04-26T15:09:08.651Z,4.20
2023-04-26T15:14:12.119Z,4.60
2023-04-26T15:19:15.115Z,11.30
2023-04-26T15:24:18.051Z,6.40
2023-04-26T15:29:21.012Z,5.90
2023-04-26T15:34:25.358Z,10.90
2023-04-26T15:39:28.297Z,8.10
2023-04-26T15:44:32.479Z,9.80
2023-04-26T15:49:35.390Z,5.10
2023-04-26T15:54:38.366Z,7.50
2023-04-26T15:59:41.272Z,4.30
2023-04-26T16:04:44.317Z,5.80
2023-04-26T16:09:47.426Z,6.10
2023-04-26T16:14:51.878Z,6.60
2023-04-26T16:19:54.756Z,7.10
2023-04-26T16:24:59.612Z,4.10
2023-04-26T16:30:03.927Z,3.90
2023-04-26T16:35:09.186Z,7.80
2023-04-26T16:40:13.471Z,4.70
2023-04-26T16:45:16.781Z,5.90
2023-04-26T16:50:20.062Z,4.40
2023-04-26T16:55:22.953Z,4.00
2023-04-26T17:00:26.045Z,6.40
2023-04-26T17:05:29.888Z,4.00
2023-04-26T17:10:35.735Z,4.80
2023-04-26T17:15:40.974Z,15.80
2023-04-26T17:20:43.920Z,6.10
2023-04-26T17:25:47.727Z,5.90
2023-04-26T17:30:50.998Z,3.30
2023-04-26T17:35:53.929Z,5.50
2023-04-26T17:40:57.083Z,3.30
2023-04-26T17:46:00.020Z,2.50
2023-04-26T17:51:03.641Z,2.70
2023-04-26T17:56:07.739Z,5.40
2023-04-26T18:01:10.604Z,4.60
2023-04-26T18:06:13.585Z,5.50
2023-04-26T18:11:16.449Z,6.00
2023-04-26T18:16:19.330Z,7.80
2023-04-26T18:21:22.168Z,3.90
2023-04-26T18:26:25.021Z,4.50
2023-04-26T18:31:27.964Z,4.60
2023-04-26T18:36:32.022Z,5.60
2023-04-26T18:41:34.837Z,4.40
2023-04-26T18:46:37.760Z,5.70
2023-04-26T18:51:40.898Z,5.30
2023-04-26T18:56:44.047Z,5.40
2023-04-26T19:01:47.185Z,8.80
2023-04-26T19:06:50.053Z,9.20
2023-04-26T19:11:52.811Z,11.80
2023-04-26T19:16:56.376Z,10.20
2023-04-26T19:21:59.127Z,10.70
2023-04-26T19:27:02.833Z,9.00
2023-04-26T19:32:07.077Z,8.90
2023-04-26T19:37:09.890Z,6.40
2023-04-26T19:42:12.694Z,11.10
2023-04-26T19:47:15.492Z,12.90
2023-04-26T19:52:18.302Z,14.90
2023-04-26T19:57:22.076Z,12.20
2023-04-26T20:02:25.011Z,16.20
2023-04-26T20:07:28.035Z,13.00
2023-04-26T20:12:30.819Z,8.20
2023-04-26T20:17:33.709Z,7.40
2023-04-26T20:22:37.159Z,8.10
2023-04-26T20:27:39.982Z,6.50
2023-04-26T20:32:43.301Z,4.90
2023-04-26T20:37:46.430Z,7.10
2023-04-26T20:42:49.276Z,9.80
2023-04-26T20:47:52.128Z,7.50
2023-04-26T20:52:55.079Z,7.00
2023-04-26T20:57:57.935Z,11.30
2023-04-26T21:03:01.001Z,22.00
2023-04-26T21:08:04.145Z,23.00
2023-04-26T21:13:06.930Z,15.50
2023-04-26T21:18:10.266Z,13.20
2023-04-26T21:23:13.078Z,9.40
2023-04-26T21:28:16.022Z,7.70
2023-04-26T21:33:18.966Z,6.90
2023-04-26T21:38:22.135Z,7.90
2023-04-26T21:43:25.074Z,6.80
2023-04-26T21:48:27.910Z,13.90
2023-04-26T21:53:30.981Z,7.80
2023-04-26T21:58:34.193Z,8.10
2023-04-26T22:03:37.922Z,10.80
2023-04-26T22:08:41.367Z,13.30
2023-04-26T22:13:44.384Z,14.70
2023-04-26T22:18:47.198Z,10.90
2023-04-26T22:23:49.961Z,8.10
2023-04-26T22:28:52.930Z,9.80
2023-04-26T22:33:55.746Z,8.00
2023-04-26T22:38:59.592Z,7.20
2023-04-26T22:44:02.428Z,3.80
2023-04-26T22:49:05.214Z,9.00
2023-04-26T22:54:08.196Z,11.80
2023-04-26T22:59:11.649Z,8.90
2023-04-26T23:04:14.585Z,6.20
2023-04-26T23:09:17.405Z,6.70
2023-04-26T23:14:20.282Z,6.90
2023-04-26T23:19:23.161Z,8.50
2023-04-26T23:24:26.219Z,7.60
2023-04-26T23:29:29.020Z,6.80
2023-04-26T23:34:31.830Z,7.20
2023-04-26T23:39:36.485Z,5.80
2023-04-26T23:44:39.384Z,9.50
2023-04-26T23:49:42.223Z,7.20
2023-04-26T23:54:45.010Z,11.10
2023-04-26T23:59:47.838Z,6.50
